createdAt,value
2023-01-25T00:01:14.201Z,-23687.09
2023-01-25T00:08:15.149Z,-23688.48
2023-01-25T00:10:43.366Z,-23687.09
2023-01-25T00:13:12.148Z,-23686.87
2023-01-25T00:15:40.435Z,-23687.44
2023-01-25T00:18:11.474Z,-23687.53
2023-01-25T00:20:39.596Z,-23687.69
2023-01-25T00:23:07.696Z,-23687.63
2023-01-25T00:25:36.461Z,-23687.88
2023-01-25T00:28:04.844Z,-23688.57
2023-01-25T00:30:33.113Z,-23689.20
2023-01-25T00:33:27.460Z,-23689.49
2023-01-25T00:35:58.229Z,-23689.96
2023-01-25T00:38:31.194Z,-23690.69
2023-01-25T00:40:59.312Z,-23691.22
2023-01-25T00:43:27.442Z,-23691.29
2023-01-25T00:46:01.345Z,-23690.82
2023-01-25T00:48:29.644Z,-23690.47
2023-01-25T00:51:01.912Z,-23690.28
2023-01-25T00:53:30.148Z,-23690.53
2023-01-25T00:55:58.499Z,-23690.47
2023-01-25T00:58:27.077Z,-23690.25
2023-01-25T01:00:55.700Z,-23690.13
2023-01-25T01:03:23.948Z,-23689.68
2023-01-25T01:06:05.468Z,-23689.27
2023-01-25T01:08:34.978Z,-23689.02
2023-01-25T01:11:06.210Z,-23689.30
2023-01-25T01:13:34.507Z,-23689.62
2023-01-25T01:16:04.997Z,-23690.16
2023-01-25T01:18:36.461Z,-23690.09
2023-01-25T01:21:05.077Z,-23690.00
2023-01-25T01:23:33.149Z,-23690.22
2023-01-25T01:26:02.407Z,-23690.50
2023-01-25T01:28:31.402Z,-23690.60
2023-01-25T01:31:04.256Z,-23690.41
2023-01-25T01:33:36.117Z,-23690.16
2023-01-25T01:36:15.117Z,-23690.34
2023-01-25T01:38:43.338Z,-23691.04
2023-01-25T01:41:12.232Z,-23691.16
2023-01-25T01:43:40.583Z,-23691.57
2023-01-25T01:46:15.972Z,-23692.18
2023-01-25T01:48:53.470Z,-23692.11
2023-01-25T01:51:28.708Z,-23692.11
2023-01-25T01:54:00.036Z,-23691.29
2023-01-25T01:56:40.181Z,-23690.60
2023-01-25T01:59:09.381Z,-23691.00
2023-01-25T02:01:39.209Z,-23691.92
2023-01-25T02:04:07.928Z,-23692.71
2023-01-25T02:06:51.137Z,-23693.06
2023-01-25T02:09:23.893Z,-23692.36
2023-01-25T02:11:52.617Z,-23691.48
2023-01-25T02:14:20.853Z,-23690.38
2023-01-25T02:16:49.749Z,-23689.62
2023-01-25T02:19:25.899Z,-23689.05
2023-01-25T02:21:54.005Z,-23687.44
2023-01-25T02:24:26.519Z,-23686.84
2023-01-25T02:26:54.814Z,-23686.81
2023-01-25T02:29:24.322Z,-23686.87
2023-01-25T02:32:02.946Z,-23687.31
2023-01-25T02:34:31.352Z,-23687.63
2023-01-25T02:36:59.593Z,-23688.32
2023-01-25T02:39:28.213Z,-23687.97
2023-01-25T02:41:56.398Z,-23686.39
2023-01-25T02:44:33.364Z,-23685.35
2023-01-25T02:47:04.914Z,-23684.63
2023-01-25T02:49:36.929Z,-23683.93
2023-01-25T02:52:05.616Z,-23683.08
2023-01-25T02:54:33.789Z,-23682.92
2023-01-25T02:57:03.350Z,-23682.07
2023-01-25T02:59:37.462Z,-23681.12
2023-01-25T03:02:05.788Z,-23680.77
2023-01-25T03:04:33.956Z,-23680.99
2023-01-25T03:07:02.259Z,-23681.15
2023-01-25T03:09:30.557Z,-23681.24
2023-01-25T03:11:59.753Z,-23681.28
2023-01-25T03:14:27.965Z,-23680.90
2023-01-25T03:16:56.130Z,-23680.55
2023-01-25T03:19:25.123Z,-23679.86
2023-01-25T03:21:53.683Z,-23678.91
2023-01-25T03:24:21.954Z,-23678.44
2023-01-25T03:27:09.179Z,-23678.97
2023-01-25T03:29:46.419Z,-23679.00
2023-01-25T03:32:21.263Z,-23678.88
2023-01-25T03:34:50.778Z,-23678.53
2023-01-25T03:37:20.299Z,-23677.83
2023-01-25T03:39:49.035Z,-23676.98
2023-01-25T03:42:21.596Z,-23675.91
2023-01-25T03:44:53.146Z,-23675.68
2023-01-25T03:47:21.334Z,-23676.70
2023-01-25T03:49:50.120Z,-23677.80
2023-01-25T03:52:20.045Z,-23678.59
2023-01-25T03:54:50.526Z,-23679.13
2023-01-25T03:57:20.541Z,-23679.86
2023-01-25T04:00:07.720Z,-23680.27
2023-01-25T04:02:43.258Z,-23680.17
2023-01-25T04:05:16.111Z,-23680.20
2023-01-25T04:07:44.307Z,-23680.39
2023-01-25T04:10:14.298Z,-23679.79
2023-01-25T04:12:45.311Z,-23678.43
2023-01-25T04:15:13.593Z,-23676.95
2023-01-25T04:17:41.878Z,-23677.11
2023-01-25T04:20:18.335Z,-23677.11
2023-01-25T04:22:46.733Z,-23676.32
2023-01-25T04:25:15.539Z,-23675.69
2023-01-25T04:27:49.897Z,-23675.46
2023-01-25T04:30:18.846Z,-23675.81
2023-01-25T04:32:47.548Z,-23675.72
2023-01-25T04:35:27.593Z,-23674.51
2023-01-25T04:37:59.581Z,-23674.07
2023-01-25T04:40:32.329Z,-23673.79
2023-01-25T04:43:01.094Z,-23673.66
2023-01-25T04:45:30.504Z,-23673.88
2023-01-25T04:48:01.221Z,-23674.52
2023-01-25T04:50:30.228Z,-23674.61
2023-01-25T04:53:00.142Z,-23674.93
2023-01-25T04:55:30.224Z,-23675.24
2023-01-25T04:58:01.047Z,-23674.80
2023-01-25T05:00:29.923Z,-23674.29
2023-01-25T05:02:58.732Z,-23673.47
2023-01-25T05:05:27.415Z,-23672.93
2023-01-25T05:07:55.904Z,-23672.65
2023-01-25T05:10:24.132Z,-23672.65
2023-01-25T05:13:19.450Z,-23672.53
2023-01-25T05:15:49.308Z,-23671.42
2023-01-25T05:18:17.719Z,-23670.50
2023-01-25T05:20:46.023Z,-23670.22
2023-01-25T05:23:14.336Z,-23669.43
2023-01-25T05:26:01.937Z,-23668.41
2023-01-25T05:28:31.618Z,-23668.35
2023-01-25T05:31:17.734Z,-23668.67
2023-01-25T05:33:46.296Z,-23668.60
2023-01-25T05:36:14.414Z,-23667.53
2023-01-25T05:38:48.470Z,-23666.77
2023-01-25T05:41:16.699Z,-23666.68
2023-01-25T05:43:48.667Z,-23667.34
2023-01-25T05:46:17.503Z,-23667.40
2023-01-25T05:48:48.273Z,-23667.56
2023-01-25T05:51:16.597Z,-23667.84
2023-01-25T05:53:44.662Z,-23667.63
2023-01-25T05:56:12.953Z,-23667.09
2023-01-25T05:58:41.766Z,-23666.90
2023-01-25T06:01:10.032Z,-23666.77
2023-01-25T06:03:47.968Z,-23666.78
2023-01-25T06:06:16.456Z,-23666.68
2023-01-25T06:08:45.571Z,-23666.71
2023-01-25T06:11:16.832Z,-23666.93
2023-01-25T06:13:47.823Z,-23666.87
2023-01-25T06:16:17.874Z,-23666.58
2023-01-25T06:19:07.631Z,-23666.42
2023-01-25T07:29:43.814Z,-23662.35
2023-01-25T07:32:14.004Z,-23663.45
2023-01-25T07:34:42.728Z,-23663.77
2023-01-25T07:37:10.925Z,-23665.10
2023-01-25T07:39:40.908Z,-23665.82
2023-01-25T07:42:09.058Z,-23666.43
2023-01-25T07:44:37.807Z,-23666.81
2023-01-25T07:47:24.491Z,-23666.52
2023-01-25T07:49:52.686Z,-23666.01
2023-01-25T07:52:20.804Z,-23666.04
2023-01-25T07:54:50.108Z,-23666.36
2023-01-25T07:57:18.239Z,-23666.07
2023-01-25T07:59:47.550Z,-23666.27
2023-01-25T08:02:15.756Z,-23666.52
2023-01-25T08:04:45.743Z,-23666.26
2023-01-25T08:07:14.365Z,-23667.21
2023-01-25T08:09:46.365Z,-23668.22
2023-01-25T08:12:14.466Z,-23668.51
2023-01-25T08:14:42.655Z,-23668.86
2023-01-25T08:17:11.218Z,-23668.29
2023-01-25T08:19:39.323Z,-23667.85
2023-01-25T08:22:08.689Z,-23667.56
2023-01-25T08:24:36.945Z,-23667.97
2023-01-25T08:27:07.505Z,-23667.75
2023-01-25T08:29:36.130Z,-23667.81
2023-01-25T08:32:06.670Z,-23668.00
2023-01-25T08:34:38.046Z,-23668.48
2023-01-25T08:37:06.573Z,-23669.11
2023-01-25T08:39:36.154Z,-23669.46
2023-01-25T08:42:04.733Z,-23670.09
2023-01-25T08:44:33.261Z,-23670.94
2023-01-25T08:47:02.332Z,-23672.08
2023-01-25T08:49:31.236Z,-23672.68
2023-01-25T08:51:59.320Z,-23673.19
2023-01-25T08:54:27.625Z,-23674.58
2023-01-25T08:56:55.955Z,-23675.46
2023-01-25T08:59:24.244Z,-23675.75
2023-01-25T09:01:52.834Z,-23675.25
2023-01-25T09:04:21.115Z,-23675.28
2023-01-25T09:06:51.218Z,-23675.75
2023-01-25T09:09:19.368Z,-23675.88
2023-01-25T09:11:47.683Z,-23675.94
2023-01-25T09:14:16.109Z,-23676.00
2023-01-25T09:16:44.267Z,-23676.67
2023-01-25T09:19:12.830Z,-23677.48
2023-01-25T09:21:41.070Z,-23677.77
2023-01-25T09:24:09.428Z,-23677.93
2023-01-25T09:26:39.397Z,-23678.21
2023-01-25T09:29:08.304Z,-23678.31
2023-01-25T09:31:40.802Z,-23679.76
2023-01-25T09:34:23.919Z,-23680.87
2023-01-25T09:36:52.172Z,-23681.40
2023-01-25T09:39:20.899Z,-23680.80
2023-01-25T09:42:15.754Z,-23679.54
2023-01-25T09:45:00.255Z,-23678.43
2023-01-25T09:47:53.532Z,-23678.15
2023-01-25T09:50:30.855Z,-23678.43
2023-01-25T09:53:10.943Z,-23679.04
2023-01-25T09:55:39.671Z,-23679.67
2023-01-25T09:58:13.458Z,-23680.08
2023-01-25T10:00:45.350Z,-23680.24
2023-01-25T10:03:26.253Z,-23680.80
2023-01-25T10:05:57.041Z,-23681.21
2023-01-25T10:08:34.444Z,-23680.87
2023-01-25T10:11:30.032Z,-23680.36
2023-01-25T10:13:58.414Z,-23680.43
2023-01-25T10:16:58.997Z,-23681.31
2023-01-25T10:19:52.108Z,-23681.53
2023-01-25T10:22:22.356Z,-23681.50
2023-01-25T10:24:53.490Z,-23681.91
2023-01-25T10:27:27.557Z,-23682.67
2023-01-25T10:29:57.281Z,-23683.40
2023-01-25T10:32:27.655Z,-23683.93
2023-01-25T10:34:57.556Z,-23684.37
2023-01-25T10:37:28.762Z,-23684.59
2023-01-25T10:40:02.211Z,-23684.97
2023-01-25T10:42:33.670Z,-23685.16
2023-01-25T10:45:13.324Z,-23684.88
2023-01-25T10:47:47.891Z,-23684.97
2023-01-25T10:50:39.028Z,-23685.20
2023-01-25T10:53:26.215Z,-23685.35
2023-01-25T10:56:11.476Z,-23685.76
2023-01-25T10:58:46.426Z,-23686.20
2023-01-25T11:01:40.887Z,-23686.42
2023-01-25T11:04:30.853Z,-23686.65
2023-01-25T11:06:59.635Z,-23687.50
2023-01-25T11:09:36.206Z,-23688.32
2023-01-25T11:12:13.761Z,-23688.95
2023-01-25T11:14:42.069Z,-23689.08
2023-01-25T11:17:31.680Z,-23688.57
2023-01-25T11:20:07.950Z,-23689.27
2023-01-25T11:22:36.858Z,-23689.33
2023-01-25T11:25:28.003Z,-23688.61
2023-01-25T11:28:12.579Z,-23688.20
2023-01-25T11:30:40.928Z,-23687.69
2023-01-25T11:33:13.015Z,-23687.63
2023-01-25T11:35:53.518Z,-23688.01
2023-01-25T11:38:22.376Z,-23688.45
2023-01-25T11:41:49.280Z,-23688.00
2023-01-25T11:44:32.460Z,-23687.12
2023-01-25T11:47:12.048Z,-23686.17
2023-01-25T11:49:51.547Z,-23686.08
2023-01-25T11:52:43.620Z,-23686.46
2023-01-25T11:55:27.426Z,-23685.95
2023-01-25T11:58:37.137Z,-23686.11
2023-01-25T12:01:28.054Z,-23686.43
2023-01-25T12:04:05.694Z,-23686.96
2023-01-25T12:06:41.002Z,-23687.19
2023-01-25T12:09:42.328Z,-23686.78
2023-01-25T12:12:20.922Z,-23686.55
2023-01-25T12:14:53.493Z,-23686.87
2023-01-25T12:17:58.825Z,-23686.87
2023-01-25T12:21:30.842Z,-23687.31
2023-01-25T12:24:18.386Z,-23687.82
2023-01-25T12:27:07.755Z,-23687.75
2023-01-25T12:29:45.425Z,-23687.72
2023-01-25T12:32:28.017Z,-23687.82
2023-01-25T12:35:30.902Z,-23687.69
2023-01-25T12:38:01.887Z,-23687.53
2023-01-25T12:40:43.363Z,-23687.25
2023-01-25T12:43:30.938Z,-23687.09
2023-01-25T12:46:10.656Z,-23687.09
2023-01-25T12:48:41.821Z,-23686.96
2023-01-25T12:51:13.925Z,-23686.65
2023-01-25T12:53:52.455Z,-23685.79
2023-01-25T12:56:25.975Z,-23685.07
2023-01-25T12:58:56.817Z,-23684.09
2023-01-25T13:01:31.047Z,-23683.14
2023-01-25T13:04:26.887Z,-23682.54
2023-01-25T13:07:16.380Z,-23682.26
2023-01-25T16:40:34.176Z,-23676.95
2023-01-25T16:43:03.059Z,-23679.41
2023-01-25T16:45:32.063Z,-23679.98
2023-01-25T16:48:01.995Z,-23680.52
2023-01-25T16:50:30.319Z,-23680.52
2023-01-25T16:53:00.178Z,-23680.21
2023-01-25T16:55:28.485Z,-23679.79
2023-01-25T16:57:56.633Z,-23679.16
2023-01-25T17:00:25.240Z,-23678.84
2023-01-25T17:02:59.254Z,-23679.16
2023-01-25T17:05:32.743Z,-23679.07
2023-01-25T17:08:01.138Z,-23678.81
2023-01-25T17:10:33.160Z,-23678.47
2023-01-25T17:13:01.337Z,-23678.37
2023-01-25T17:15:30.370Z,-23678.59
2023-01-25T17:17:58.631Z,-23678.34
2023-01-25T17:20:26.767Z,-23678.08
2023-01-25T17:22:55.068Z,-23677.11
2023-01-25T17:25:23.343Z,-23676.73
2023-01-25T17:27:53.882Z,-23676.73
2023-01-25T17:30:22.311Z,-23676.70
2023-01-25T17:32:50.486Z,-23676.67
2023-01-25T17:35:18.657Z,-23676.16
2023-01-25T17:37:46.907Z,-23675.81
2023-01-25T17:40:15.218Z,-23675.31
2023-01-25T17:42:43.379Z,-23675.03
2023-01-25T17:45:12.095Z,-23674.42
2023-01-25T17:47:40.559Z,-23673.41
2023-01-25T17:50:09.664Z,-23672.78
2023-01-25T17:52:38.030Z,-23672.87
2023-01-25T17:55:06.791Z,-23673.16
2023-01-25T17:57:37.293Z,-23673.47
2023-01-25T18:00:06.465Z,-23674.01
2023-01-25T18:02:43.923Z,-23674.01
2023-01-25T18:05:12.169Z,-23673.85
2023-01-25T18:07:40.536Z,-23673.82
2023-01-25T18:10:09.602Z,-23674.20
2023-01-25T18:12:38.294Z,-23674.51
2023-01-25T18:15:07.513Z,-23674.99
2023-01-25T18:17:38.379Z,-23675.28
2023-01-25T18:20:10.592Z,-23674.51
2023-01-25T18:22:39.148Z,-23673.54
2023-01-25T18:25:17.058Z,-23672.71
2023-01-25T18:27:45.208Z,-23671.71
2023-01-25T18:30:37.428Z,-23670.88
2023-01-25T18:33:05.810Z,-23670.09
2023-01-25T18:35:35.544Z,-23669.14
2023-01-25T18:38:03.664Z,-23667.44
2023-01-25T18:40:31.878Z,-23666.17
2023-01-25T18:43:01.633Z,-23665.70
2023-01-25T18:45:29.821Z,-23665.86
2023-01-25T18:47:57.980Z,-23666.27
2023-01-25T18:50:28.817Z,-23667.68
2023-01-25T18:52:57.305Z,-23668.48
2023-01-25T18:55:25.381Z,-23668.61
2023-01-25T18:57:53.742Z,-23668.80
2023-01-25T19:00:22.198Z,-23668.79
2023-01-25T19:02:50.519Z,-23669.02
2023-01-25T19:05:20.091Z,-23669.11
2023-01-25T19:07:48.286Z,-23669.30
2023-01-25T19:10:17.597Z,-23669.52
2023-01-25T19:12:45.873Z,-23669.52
2023-01-25T19:15:14.263Z,-23669.61
2023-01-25T19:17:42.676Z,-23669.49
2023-01-25T19:20:11.334Z,-23669.08
2023-01-25T19:22:40.652Z,-23668.73
2023-01-25T19:25:10.750Z,-23668.32
2023-01-25T19:27:39.868Z,-23667.56
2023-01-25T19:30:08.661Z,-23666.46
2023-01-25T19:32:38.254Z,-23665.95
2023-01-25T19:35:08.100Z,-23665.73
2023-01-25T19:37:37.018Z,-23665.26
2023-01-25T19:40:08.146Z,-23665.00
2023-01-25T19:42:36.664Z,-23664.75
2023-01-25T19:45:05.550Z,-23664.50
2023-01-25T19:47:33.722Z,-23664.37
2023-01-25T19:50:02.875Z,-23664.12
2023-01-25T19:52:31.369Z,-23664.21
2023-01-25T19:54:59.681Z,-23664.59
2023-01-25T19:57:27.801Z,-23665.00
2023-01-25T19:59:56.030Z,-23665.20
2023-01-25T20:02:24.433Z,-23665.64
2023-01-25T20:04:52.632Z,-23665.70
2023-01-25T20:07:22.430Z,-23665.32
2023-01-25T20:09:50.508Z,-23665.35
2023-01-25T20:12:18.621Z,-23665.04
2023-01-25T20:14:46.919Z,-23664.78
2023-01-25T20:17:15.109Z,-23664.28
2023-01-25T20:19:44.384Z,-23663.74
2023-01-25T20:22:12.732Z,-23663.71
2023-01-25T20:24:42.347Z,-23664.09
2023-01-25T20:27:10.570Z,-23664.37
2023-01-25T20:29:39.963Z,-23664.75
2023-01-25T20:32:09.686Z,-23664.82
2023-01-25T20:34:37.978Z,-23664.24
2023-01-25T20:37:06.094Z,-23664.21
2023-01-25T20:39:37.083Z,-23664.40
2023-01-25T20:42:05.464Z,-23664.68
2023-01-25T20:44:33.688Z,-23664.78
2023-01-25T20:47:01.837Z,-23664.68
2023-01-25T20:49:30.264Z,-23664.34
2023-01-25T20:51:58.615Z,-23664.34
2023-01-25T20:54:26.752Z,-23664.62
2023-01-25T20:56:55.224Z,-23665.00
2023-01-25T20:59:23.382Z,-23665.26
2023-01-25T21:01:52.692Z,-23665.45
2023-01-25T21:04:20.828Z,-23665.76
2023-01-25T21:06:49.016Z,-23665.54
2023-01-25T21:09:17.305Z,-23665.48
2023-01-25T21:11:45.396Z,-23665.54
2023-01-25T21:14:13.916Z,-23665.51
2023-01-25T21:16:44.502Z,-23665.22
2023-01-25T21:19:12.664Z,-23665.00
2023-01-25T21:21:40.759Z,-23664.94
2023-01-25T21:24:09.243Z,-23664.43
2023-01-25T21:26:38.472Z,-23663.74
2023-01-25T21:29:07.434Z,-23663.23
2023-01-25T21:31:37.565Z,-23662.57
2023-01-25T21:34:06.362Z,-23662.35
2023-01-25T21:36:34.943Z,-23662.06
2023-01-25T21:39:03.143Z,-23661.84
2023-01-25T21:41:33.731Z,-23661.21
2023-01-25T21:44:20.741Z,-23660.58
2023-01-25T21:47:16.363Z,-23659.98
2023-01-25T21:49:55.484Z,-23659.95
2023-01-25T21:52:23.639Z,-23659.31
2023-01-25T21:54:51.829Z,-23658.65
2023-01-25T21:57:20.664Z,-23657.86
2023-01-25T21:59:49.018Z,-23657.45
2023-01-25T22:02:17.843Z,-23657.16
2023-01-25T22:04:46.044Z,-23657.20
2023-01-25T22:07:14.544Z,-23656.94
2023-01-25T23:53:32.882Z,-23658.36
2023-01-25T23:56:02.448Z,-23658.46
2023-01-25T23:58:30.826Z,-23658.30
